sensor_id;sensor_type;location;lat;lon;timestamp;temperature;humidity
66740;DHT22;53653;52.188;8.602;2023-08-12T00:01:22;20.63;79.85
66740;DHT22;53653;52.188;8.602;2023-08-12T00:03:50;20.60;80.26
66740;DHT22;53653;52.188;8.602;2023-08-12T00:06:16;20.46;80.81
66740;DHT22;53653;52.188;8.602;2023-08-12T00:08:41;20.45;80.82
66740;DHT22;53653;52.188;8.602;2023-08-12T00:11:07;20.47;80.67
66740;DHT22;53653;52.188;8.602;2023-08-12T00:13:32;20.60;80.05
66740;DHT22;53653;52.188;8.602;2023-08-12T00:15:58;20.73;79.54
66740;DHT22;53653;52.188;8.602;2023-08-12T00:18:23;20.86;79.23
66740;DHT22;53653;52.188;8.602;2023-08-12T00:20:49;20.90;78.88
66740;DHT22;53653;52.188;8.602;2023-08-12T00:23:14;21.22;77.24
66740;DHT22;53653;52.188;8.602;2023-08-12T00:25:40;21.30;77.41
66740;DHT22;53653;52.188;8.602;2023-08-12T00:28:05;21.10;77.49
66740;DHT22;53653;52.188;8.602;2023-08-12T00:30:31;21.00;77.88
66740;DHT22;53653;52.188;8.602;2023-08-12T00:32:56;20.77;78.67
66740;DHT22;53653;52.188;8.602;2023-08-12T00:35:22;20.83;78.40
66740;DHT22;53653;52.188;8.602;2023-08-12T00:37:47;20.80;78.30
66740;DHT22;53653;52.188;8.602;2023-08-12T00:40:13;20.81;78.82
66740;DHT22;53653;52.188;8.602;2023-08-12T00:42:39;20.81;78.44
66740;DHT22;53653;52.188;8.602;2023-08-12T00:45:09;20.73;78.43
66740;DHT22;53653;52.188;8.602;2023-08-12T00:47:35;20.73;78.45
66740;DHT22;53653;52.188;8.602;2023-08-12T00:50:00;20.83;78.13
66740;DHT22;53653;52.188;8.602;2023-08-12T00:52:26;20.95;77.98
66740;DHT22;53653;52.188;8.602;2023-08-12T00:54:52;21.04;77.49
66740;DHT22;53653;52.188;8.602;2023-08-12T00:57:18;21.12;77.18
66740;DHT22;53653;52.188;8.602;2023-08-12T00:59:44;21.25;77.04
66740;DHT22;53653;52.188;8.602;2023-08-12T01:02:11;21.20;77.31
66740;DHT22;53653;52.188;8.602;2023-08-12T01:04:37;21.04;78.30
66740;DHT22;53653;52.188;8.602;2023-08-12T01:07:02;20.98;78.68
66740;DHT22;53653;52.188;8.602;2023-08-12T01:09:29;21.00;78.72
66740;DHT22;53653;52.188;8.602;2023-08-12T01:11:58;20.93;79.02
66740;DHT22;53653;52.188;8.602;2023-08-12T01:14:33;20.94;79.01
66740;DHT22;53653;52.188;8.602;2023-08-12T01:17:03;20.91;79.59
66740;DHT22;53653;52.188;8.602;2023-08-12T01:19:35;20.87;80.01
66740;DHT22;53653;52.188;8.602;2023-08-12T01:22:04;20.79;80.23
66740;DHT22;53653;52.188;8.602;2023-08-12T01:24:40;20.72;80.33
66740;DHT22;53653;52.188;8.602;2023-08-12T01:27:07;20.79;80.30
66740;DHT22;53653;52.188;8.602;2023-08-12T01:29:34;20.73;80.78
66740;DHT22;53653;52.188;8.602;2023-08-12T01:35:14;20.33;84.02
66740;DHT22;53653;52.188;8.602;2023-08-12T01:37:42;20.36;84.16
66740;DHT22;53653;52.188;8.602;2023-08-12T01:40:09;20.35;84.01
66740;DHT22;53653;52.188;8.602;2023-08-12T01:42:36;20.30;84.26
66740;DHT22;53653;52.188;8.602;2023-08-12T01:45:04;20.18;84.94
66740;DHT22;53653;52.188;8.602;2023-08-12T01:47:29;20.15;85.37
66740;DHT22;53653;52.188;8.602;2023-08-12T01:49:55;20.28;85.35
66740;DHT22;53653;52.188;8.602;2023-08-12T01:52:22;20.28;84.87
66740;DHT22;53653;52.188;8.602;2023-08-12T01:54:48;20.19;85.49
66740;DHT22;53653;52.188;8.602;2023-08-12T01:57:13;20.22;85.62
66740;DHT22;53653;52.188;8.602;2023-08-12T01:59:39;20.22;85.75
66740;DHT22;53653;52.188;8.602;2023-08-12T02:02:04;20.15;86.20
66740;DHT22;53653;52.188;8.602;2023-08-12T02:04:31;20.19;86.43
66740;DHT22;53653;52.188;8.602;2023-08-12T02:06:57;20.19;86.53
66740;DHT22;53653;52.188;8.602;2023-08-12T02:09:23;20.25;86.17
66740;DHT22;53653;52.188;8.602;2023-08-12T02:11:49;20.28;86.14
66740;DHT22;53653;52.188;8.602;2023-08-12T02:14:15;20.24;86.50
66740;DHT22;53653;52.188;8.602;2023-08-12T02:16:41;20.32;86.49
66740;DHT22;53653;52.188;8.602;2023-08-12T02:19:07;20.33;86.51
66740;DHT22;53653;52.188;8.602;2023-08-12T02:21:33;20.35;86.74
66740;DHT22;53653;52.188;8.602;2023-08-12T02:23:59;20.28;87.01
66740;DHT22;53653;52.188;8.602;2023-08-12T02:26:25;20.26;87.38
66740;DHT22;53653;52.188;8.602;2023-08-12T02:28:50;20.22;87.71
66740;DHT22;53653;52.188;8.602;2023-08-12T02:31:16;20.04;89.00
66740;DHT22;53653;52.188;8.602;2023-08-12T02:33:43;19.92;89.34
66740;DHT22;53653;52.188;8.602;2023-08-12T02:36:08;19.92;89.66
66740;DHT22;53653;52.188;8.602;2023-08-12T02:38:34;19.95;89.31
66740;DHT22;53653;52.188;8.602;2023-08-12T02:41:00;19.94;89.67
66740;DHT22;53653;52.188;8.602;2023-08-12T02:43:25;19.91;89.90
66740;DHT22;53653;52.188;8.602;2023-08-12T02:45:51;19.80;90.72
66740;DHT22;53653;52.188;8.602;2023-08-12T02:48:17;19.81;90.75
66740;DHT22;53653;52.188;8.602;2023-08-12T02:50:43;19.85;90.54
66740;DHT22;53653;52.188;8.602;2023-08-12T02:53:09;19.84;90.82
66740;DHT22;53653;52.188;8.602;2023-08-12T02:55:35;19.84;91.02
66740;DHT22;53653;52.188;8.602;2023-08-12T02:58:03;19.94;90.90
66740;DHT22;53653;52.188;8.602;2023-08-12T03:00:29;19.88;90.90
66740;DHT22;53653;52.188;8.602;2023-08-12T03:02:55;19.87;91.00
66740;DHT22;53653;52.188;8.602;2023-08-12T03:05:21;19.91;91.01
66740;DHT22;53653;52.188;8.602;2023-08-12T03:07:46;19.97;90.90
66740;DHT22;53653;52.188;8.602;2023-08-12T03:10:12;19.92;91.37
66740;DHT22;53653;52.188;8.602;2023-08-12T03:12:38;19.82;93.09
66740;DHT22;53653;52.188;8.602;2023-08-12T03:15:06;19.63;93.74
66740;DHT22;53653;52.188;8.602;2023-08-12T03:17:32;19.41;94.65
66740;DHT22;53653;52.188;8.602;2023-08-12T03:19:58;19.24;95.01
66740;DHT22;53653;52.188;8.602;2023-08-12T03:22:29;19.19;95.86
66740;DHT22;53653;52.188;8.602;2023-08-12T03:24:55;19.16;95.89
66740;DHT22;53653;52.188;8.602;2023-08-12T03:27:21;19.18;95.52
66740;DHT22;53653;52.188;8.602;2023-08-12T03:29:47;19.31;95.17
66740;DHT22;53653;52.188;8.602;2023-08-12T03:32:14;19.39;94.23
66740;DHT22;53653;52.188;8.602;2023-08-12T03:34:40;19.49;93.56
66740;DHT22;53653;52.188;8.602;2023-08-12T03:37:06;19.57;93.05
66740;DHT22;53653;52.188;8.602;2023-08-12T03:39:32;19.64;92.81
66740;DHT22;53653;52.188;8.602;2023-08-12T03:41:59;19.67;92.67
66740;DHT22;53653;52.188;8.602;2023-08-12T03:44:25;19.64;92.95
66740;DHT22;53653;52.188;8.602;2023-08-12T03:46:52;19.59;93.03
66740;DHT22;53653;52.188;8.602;2023-08-12T03:49:18;19.61;93.03
66740;DHT22;53653;52.188;8.602;2023-08-12T03:51:44;19.61;93.07
66740;DHT22;53653;52.188;8.602;2023-08-12T03:54:10;19.54;93.56
66740;DHT22;53653;52.188;8.602;2023-08-12T03:56:36;19.53;93.81
66740;DHT22;53653;52.188;8.602;2023-08-12T03:59:03;19.45;94.24
66740;DHT22;53653;52.188;8.602;2023-08-12T04:01:29;19.45;94.39
66740;DHT22;53653;52.188;8.602;2023-08-12T04:03:55;19.40;94.72
66740;DHT22;53653;52.188;8.602;2023-08-12T04:06:21;19.36;94.89
66740;DHT22;53653;52.188;8.602;2023-08-12T04:08:46;19.33;95.00
66740;DHT22;53653;52.188;8.602;2023-08-12T04:11:12;19.30;95.12
66740;DHT22;53653;52.188;8.602;2023-08-12T04:13:39;19.43;94.83
66740;DHT22;53653;52.188;8.602;2023-08-12T04:16:05;19.41;94.83
66740;DHT22;53653;52.188;8.602;2023-08-12T04:18:30;19.37;95.38
66740;DHT22;53653;52.188;8.602;2023-08-12T04:20:56;19.37;96.03
66740;DHT22;53653;52.188;8.602;2023-08-12T04:23:22;19.31;95.84
66740;DHT22;53653;52.188;8.602;2023-08-12T04:25:48;19.33;96.81
66740;DHT22;53653;52.188;8.602;2023-08-12T04:28:15;19.27;96.24
66740;DHT22;53653;52.188;8.602;2023-08-12T04:30:46;19.34;96.11
66740;DHT22;53653;52.188;8.602;2023-08-12T04:33:14;19.33;96.00
66740;DHT22;53653;52.188;8.602;2023-08-12T04:35:40;19.29;95.55
66740;DHT22;53653;52.188;8.602;2023-08-12T04:38:07;19.23;95.73
66740;DHT22;53653;52.188;8.602;2023-08-12T04:40:33;19.24;95.98
66740;DHT22;53653;52.188;8.602;2023-08-12T04:42:59;19.20;96.30
66740;DHT22;53653;52.188;8.602;2023-08-12T04:45:25;19.13;96.56
66740;DHT22;53653;52.188;8.602;2023-08-12T04:47:52;19.06;96.99
66740;DHT22;53653;52.188;8.602;2023-08-12T04:50:18;19.03;97.85
66740;DHT22;53653;52.188;8.602;2023-08-12T04:52:44;18.98;97.81
66740;DHT22;53653;52.188;8.602;2023-08-12T04:55:10;18.94;97.61
66740;DHT22;53653;52.188;8.602;2023-08-12T04:57:40;18.98;97.28
66740;DHT22;53653;52.188;8.602;2023-08-12T05:00:06;19.08;97.18
66740;DHT22;53653;52.188;8.602;2023-08-12T05:02:35;19.02;97.06
66740;DHT22;53653;52.188;8.602;2023-08-12T05:05:02;19.12;96.99
66740;DHT22;53653;52.188;8.602;2023-08-12T05:07:30;19.27;96.76
66740;DHT22;53653;52.188;8.602;2023-08-12T05:09:57;19.37;96.68
66740;DHT22;53653;52.188;8.602;2023-08-12T05:12:23;19.45;96.09
66740;DHT22;53653;52.188;8.602;2023-08-12T05:14:48;19.43;96.23
66740;DHT22;53653;52.188;8.602;2023-08-12T05:17:14;19.47;96.05
66740;DHT22;53653;52.188;8.602;2023-08-12T05:19:41;19.37;96.51
66740;DHT22;53653;52.188;8.602;2023-08-12T05:22:06;19.41;96.62
66740;DHT22;53653;52.188;8.602;2023-08-12T05:24:32;19.39;96.98
66740;DHT22;53653;52.188;8.602;2023-08-12T05:26:57;19.40;97.03
66740;DHT22;53653;52.188;8.602;2023-08-12T05:29:23;19.40;97.32
66740;DHT22;53653;52.188;8.602;2023-08-12T05:31:48;19.39;97.03
66740;DHT22;53653;52.188;8.602;2023-08-12T05:34:14;19.40;97.24
66740;DHT22;53653;52.188;8.602;2023-08-12T05:36:40;19.40;96.89
66740;DHT22;53653;52.188;8.602;2023-08-12T05:39:05;19.45;97.46
66740;DHT22;53653;52.188;8.602;2023-08-12T05:41:31;19.49;97.24
66740;DHT22;53653;52.188;8.602;2023-08-12T05:43:56;19.45;96.81
66740;DHT22;53653;52.188;8.602;2023-08-12T05:46:22;19.47;96.76
66740;DHT22;53653;52.188;8.602;2023-08-12T05:48:47;19.53;97.46
66740;DHT22;53653;52.188;8.602;2023-08-12T05:51:13;19.49;96.77
66740;DHT22;53653;52.188;8.602;2023-08-12T05:53:38;19.50;96.55
66740;DHT22;53653;52.188;8.602;2023-08-12T05:56:04;19.51;96.99
66740;DHT22;53653;52.188;8.602;2023-08-12T05:58:30;19.57;96.44
66740;DHT22;53653;52.188;8.602;2023-08-12T06:00:55;19.54;96.46
66740;DHT22;53653;52.188;8.602;2023-08-12T06:03:21;19.56;97.05
66740;DHT22;53653;52.188;8.602;2023-08-12T06:05:46;19.50;96.62
66740;DHT22;53653;52.188;8.602;2023-08-12T06:08:13;19.50;96.65
66740;DHT22;53653;52.188;8.602;2023-08-12T06:10:38;19.49;96.15
66740;DHT22;53653;52.188;8.602;2023-08-12T06:13:04;19.49;96.64
66740;DHT22;53653;52.188;8.602;2023-08-12T06:15:30;19.59;96.58
66740;DHT22;53653;52.188;8.602;2023-08-12T06:17:56;19.67;96.10
66740;DHT22;53653;52.188;8.602;2023-08-12T06:20:23;19.75;95.48
66740;DHT22;53653;52.188;8.602;2023-08-12T06:22:49;19.87;95.96
66740;DHT22;53653;52.188;8.602;2023-08-12T06:25:15;19.89;95.49
66740;DHT22;53653;52.188;8.602;2023-08-12T06:27:41;20.07;95.38
66740;DHT22;53653;52.188;8.602;2023-08-12T06:30:07;20.07;94.39
66740;DHT22;53653;52.188;8.602;2023-08-12T06:32:34;20.09;94.25
66740;DHT22;53653;52.188;8.602;2023-08-12T06:34:59;20.11;94.15
66740;DHT22;53653;52.188;8.602;2023-08-12T06:37:25;20.21;94.89
66740;DHT22;53653;52.188;8.602;2023-08-12T06:39:50;20.36;94.46
66740;DHT22;53653;52.188;8.602;2023-08-12T06:42:16;20.37;93.04
66740;DHT22;53653;52.188;8.602;2023-08-12T06:44:41;20.35;93.25
66740;DHT22;53653;52.188;8.602;2023-08-12T06:47:07;20.32;93.20
66740;DHT22;53653;52.188;8.602;2023-08-12T06:49:32;20.36;93.59
66740;DHT22;53653;52.188;8.602;2023-08-12T06:51:58;20.26;93.13
66740;DHT22;53653;52.188;8.602;2023-08-12T06:54:23;20.39;92.61
66740;DHT22;53653;52.188;8.602;2023-08-12T06:56:50;20.52;92.29
66740;DHT22;53653;52.188;8.602;2023-08-12T06:59:15;20.56;92.25
66740;DHT22;53653;52.188;8.602;2023-08-12T07:01:41;20.69;91.49
66740;DHT22;53653;52.188;8.602;2023-08-12T07:04:06;20.87;90.96
66740;DHT22;53653;52.188;8.602;2023-08-12T07:06:32;21.01;90.61
66740;DHT22;53653;52.188;8.602;2023-08-12T07:08:57;21.03;89.77
66740;DHT22;53653;52.188;8.602;2023-08-12T07:11:23;21.17;89.59
66740;DHT22;53653;52.188;8.602;2023-08-12T07:13:48;21.28;89.84
66740;DHT22;53653;52.188;8.602;2023-08-12T07:16:14;21.48;88.50
66740;DHT22;53653;52.188;8.602;2023-08-12T07:18:39;21.49;88.22
66740;DHT22;53653;52.188;8.602;2023-08-12T07:21:05;21.48;88.41
66740;DHT22;53653;52.188;8.602;2023-08-12T07:23:31;21.45;88.66
66740;DHT22;53653;52.188;8.602;2023-08-12T07:25:57;21.62;88.16
66740;DHT22;53653;52.188;8.602;2023-08-12T07:28:22;21.58;87.20
66740;DHT22;53653;52.188;8.602;2023-08-12T07:30:48;21.35;88.80
66740;DHT22;53653;52.188;8.602;2023-08-12T07:33:15;21.56;88.13
66740;DHT22;53653;52.188;8.602;2023-08-12T07:35:40;21.67;87.84
66740;DHT22;53653;52.188;8.602;2023-08-12T07:38:06;21.92;86.59
66740;DHT22;53653;52.188;8.602;2023-08-12T07:40:32;21.90;86.93
66740;DHT22;53653;52.188;8.602;2023-08-12T07:42:57;21.96;86.60
66740;DHT22;53653;52.188;8.602;2023-08-12T07:45:23;22.04;86.37
66740;DHT22;53653;52.188;8.602;2023-08-12T07:47:49;21.96;86.52
66740;DHT22;53653;52.188;8.602;2023-08-12T07:50:14;22.04;86.58
66740;DHT22;53653;52.188;8.602;2023-08-12T07:52:40;22.09;86.36
66740;DHT22;53653;52.188;8.602;2023-08-12T07:55:06;22.11;85.77
66740;DHT22;53653;52.188;8.602;2023-08-12T07:57:32;22.14;86.08
66740;DHT22;53653;52.188;8.602;2023-08-12T07:59:57;22.17;86.18
66740;DHT22;53653;52.188;8.602;2023-08-12T08:02:23;22.18;85.60
66740;DHT22;53653;52.188;8.602;2023-08-12T08:04:48;21.94;86.56
66740;DHT22;53653;52.188;8.602;2023-08-12T08:07:15;21.76;87.39
66740;DHT22;53653;52.188;8.602;2023-08-12T08:09:42;21.83;87.40
66740;DHT22;53653;52.188;8.602;2023-08-12T08:12:09;22.04;86.72
66740;DHT22;53653;52.188;8.602;2023-08-12T08:14:35;22.28;86.48
66740;DHT22;53653;52.188;8.602;2023-08-12T08:17:01;22.54;84.68
66740;DHT22;53653;52.188;8.602;2023-08-12T08:19:27;22.34;85.65
66740;DHT22;53653;52.188;8.602;2023-08-12T08:21:53;22.31;86.10
66740;DHT22;53653;52.188;8.602;2023-08-12T08:24:19;22.17;85.85
66740;DHT22;53653;52.188;8.602;2023-08-12T08:26:45;22.24;85.87
66740;DHT22;53653;52.188;8.602;2023-08-12T08:29:12;22.31;85.80
66740;DHT22;53653;52.188;8.602;2023-08-12T08:31:38;22.25;85.70
66740;DHT22;53653;52.188;8.602;2023-08-12T08:34:04;22.33;85.48
66740;DHT22;53653;52.188;8.602;2023-08-12T08:36:30;22.30;84.95
66740;DHT22;53653;52.188;8.602;2023-08-12T08:38:56;22.31;85.60
66740;DHT22;53653;52.188;8.602;2023-08-12T08:41:22;22.22;87.09
66740;DHT22;53653;52.188;8.602;2023-08-12T08:43:47;22.33;85.89
66740;DHT22;53653;52.188;8.602;2023-08-12T08:46:14;22.11;85.94
66740;DHT22;53653;52.188;8.602;2023-08-12T08:48:42;22.31;85.68
66740;DHT22;53653;52.188;8.602;2023-08-12T08:51:08;22.20;86.80
66740;DHT22;53653;52.188;8.602;2023-08-12T08:53:38;22.24;86.67
66740;DHT22;53653;52.188;8.602;2023-08-12T08:56:08;22.25;86.39
66740;DHT22;53653;52.188;8.602;2023-08-12T08:58:37;22.28;86.75
66740;DHT22;53653;52.188;8.602;2023-08-12T09:01:05;22.22;87.07
66740;DHT22;53653;52.188;8.602;2023-08-12T09:03:32;22.18;87.62
66740;DHT22;53653;52.188;8.602;2023-08-12T09:05:59;22.07;88.05
66740;DHT22;53653;52.188;8.602;2023-08-12T09:08:25;21.90;89.31
66740;DHT22;53653;52.188;8.602;2023-08-12T09:10:51;21.97;90.15
66740;DHT22;53653;52.188;8.602;2023-08-12T09:13:17;21.89;91.32
66740;DHT22;53653;52.188;8.602;2023-08-12T09:15:44;21.99;90.53
66740;DHT22;53653;52.188;8.602;2023-08-12T09:18:10;22.03;90.36
66740;DHT22;53653;52.188;8.602;2023-08-12T09:20:36;22.11;89.63
66740;DHT22;53653;52.188;8.602;2023-08-12T09:23:02;22.30;89.61
66740;DHT22;53653;52.188;8.602;2023-08-12T09:25:29;22.25;91.28
66740;DHT22;53653;52.188;8.602;2023-08-12T09:27:55;22.28;89.86
66740;DHT22;53653;52.188;8.602;2023-08-12T09:30:23;22.34;89.22
66740;DHT22;53653;52.188;8.602;2023-08-12T09:33:03;23.15;88.37
66740;DHT22;53653;52.188;8.602;2023-08-12T09:35:34;23.24;87.44
66740;DHT22;53653;52.188;8.602;2023-08-12T09:38:12;23.06;88.38
66740;DHT22;53653;52.188;8.602;2023-08-12T09:40:40;22.55;89.14
66740;DHT22;53653;52.188;8.602;2023-08-12T09:43:10;22.65;88.74
66740;DHT22;53653;52.188;8.602;2023-08-12T09:45:38;22.89;87.45
66740;DHT22;53653;52.188;8.602;2023-08-12T09:48:07;23.42;88.69
66740;DHT22;53653;52.188;8.602;2023-08-12T09:50:35;23.55;85.32
66740;DHT22;53653;52.188;8.602;2023-08-12T09:53:01;23.50;88.79
66740;DHT22;53653;52.188;8.602;2023-08-12T09:55:29;23.40;85.68
66740;DHT22;53653;52.188;8.602;2023-08-12T09:57:58;23.81;84.46
66740;DHT22;53653;52.188;8.602;2023-08-12T10:00:25;23.92;82.76
66740;DHT22;53653;52.188;8.602;2023-08-12T10:02:52;24.01;83.28
66740;DHT22;53653;52.188;8.602;2023-08-12T10:05:27;23.88;81.55
66740;DHT22;53653;52.188;8.602;2023-08-12T10:07:54;24.05;81.41
66740;DHT22;53653;52.188;8.602;2023-08-12T10:10:20;24.08;81.57
66740;DHT22;53653;52.188;8.602;2023-08-12T10:12:48;24.06;81.36
66740;DHT22;53653;52.188;8.602;2023-08-12T10:15:14;24.01;80.99
66740;DHT22;53653;52.188;8.602;2023-08-12T10:17:43;23.91;81.71
66740;DHT22;53653;52.188;8.602;2023-08-12T10:20:13;23.86;82.64
66740;DHT22;53653;52.188;8.602;2023-08-12T10:22:39;23.75;82.19
66740;DHT22;53653;52.188;8.602;2023-08-12T10:25:07;23.86;81.29
66740;DHT22;53653;52.188;8.602;2023-08-12T10:27:36;24.06;81.33
66740;DHT22;53653;52.188;8.602;2023-08-12T10:30:06;24.06;81.12
66740;DHT22;53653;52.188;8.602;2023-08-12T10:32:33;24.04;81.19
66740;DHT22;53653;52.188;8.602;2023-08-12T10:35:00;24.08;81.35
66740;DHT22;53653;52.188;8.602;2023-08-12T10:37:26;23.94;80.56
66740;DHT22;53653;52.188;8.602;2023-08-12T10:39:55;23.91;79.90
66740;DHT22;53653;52.188;8.602;2023-08-12T10:42:47;23.75;81.13
66740;DHT22;53653;52.188;8.602;2023-08-12T10:45:15;23.77;81.35
66740;DHT22;53653;52.188;8.602;2023-08-12T10:50:34;23.63;81.08
66740;DHT22;53653;52.188;8.602;2023-08-12T10:53:21;23.57;80.93
66740;DHT22;53653;52.188;8.602;2023-08-12T10:55:54;23.67;80.64
66740;DHT22;53653;52.188;8.602;2023-08-12T10:58:26;23.68;80.58
66740;DHT22;53653;52.188;8.602;2023-08-12T11:00:53;23.67;80.25
66740;DHT22;53653;52.188;8.602;2023-08-12T11:03:21;23.65;80.99
66740;DHT22;53653;52.188;8.602;2023-08-12T11:05:47;23.71;80.71
66740;DHT22;53653;52.188;8.602;2023-08-12T11:08:13;23.81;80.84
66740;DHT22;53653;52.188;8.602;2023-08-12T11:10:40;23.67;80.36
66740;DHT22;53653;52.188;8.602;2023-08-12T11:13:06;23.64;81.07
66740;DHT22;53653;52.188;8.602;2023-08-12T11:15:41;23.50;81.44
66740;DHT22;53653;52.188;8.602;2023-08-12T11:18:09;23.55;80.86
66740;DHT22;53653;52.188;8.602;2023-08-12T11:20:36;23.36;81.29
66740;DHT22;53653;52.188;8.602;2023-08-12T11:23:03;23.28;82.49
66740;DHT22;53653;52.188;8.602;2023-08-12T11:25:31;23.23;83.21
66740;DHT22;53653;52.188;8.602;2023-08-12T11:27:57;23.20;84.14
66740;DHT22;53653;52.188;8.602;2023-08-12T11:30:23;23.13;84.91
66740;DHT22;53653;52.188;8.602;2023-08-12T11:32:52;23.12;84.78
66740;DHT22;53653;52.188;8.602;2023-08-12T11:35:18;23.19;85.13
66740;DHT22;53653;52.188;8.602;2023-08-12T11:37:47;23.23;85.39
66740;DHT22;53653;52.188;8.602;2023-08-12T11:40:15;23.15;86.01
66740;DHT22;53653;52.188;8.602;2023-08-12T11:42:44;23.17;85.96
66740;DHT22;53653;52.188;8.602;2023-08-12T11:45:10;23.22;85.70
66740;DHT22;53653;52.188;8.602;2023-08-12T11:47:37;23.26;85.51
66740;DHT22;53653;52.188;8.602;2023-08-12T11:50:10;23.33;85.20
66740;DHT22;53653;52.188;8.602;2023-08-12T11:52:37;23.36;85.00
66740;DHT22;53653;52.188;8.602;2023-08-12T11:55:04;23.33;84.97
66740;DHT22;53653;52.188;8.602;2023-08-12T11:57:31;23.33;85.46
66740;DHT22;53653;52.188;8.602;2023-08-12T12:00:09;23.37;85.40
66740;DHT22;53653;52.188;8.602;2023-08-12T12:09:49;23.94;83.32
66740;DHT22;53653;52.188;8.602;2023-08-12T12:12:15;24.02;82.52
66740;DHT22;53653;52.188;8.602;2023-08-12T12:14:40;24.19;81.89
66740;DHT22;53653;52.188;8.602;2023-08-12T12:17:10;24.40;81.77
66740;DHT22;53653;52.188;8.602;2023-08-12T12:19:36;24.32;81.33
66740;DHT22;53653;52.188;8.602;2023-08-12T12:22:04;24.29;80.52
66740;DHT22;53653;52.188;8.602;2023-08-12T12:24:30;24.49;79.67
66740;DHT22;53653;52.188;8.602;2023-08-12T12:26:56;24.74;79.48
66740;DHT22;53653;52.188;8.602;2023-08-12T12:29:22;25.14;77.32
66740;DHT22;53653;52.188;8.602;2023-08-12T12:31:48;25.25;77.74
66740;DHT22;53653;52.188;8.602;2023-08-12T12:34:14;25.17;77.52
66740;DHT22;53653;52.188;8.602;2023-08-12T12:36:40;25.03;77.86
66740;DHT22;53653;52.188;8.602;2023-08-12T12:39:07;24.77;78.10
66740;DHT22;53653;52.188;8.602;2023-08-12T12:41:33;24.44;78.73
66740;DHT22;53653;52.188;8.602;2023-08-12T12:44:00;24.30;79.19
66740;DHT22;53653;52.188;8.602;2023-08-12T12:46:27;24.33;79.05
66740;DHT22;53653;52.188;8.602;2023-08-12T12:48:52;24.30;79.31
66740;DHT22;53653;52.188;8.602;2023-08-12T12:51:18;24.22;79.11
66740;DHT22;53653;52.188;8.602;2023-08-12T12:53:43;24.08;79.14
66740;DHT22;53653;52.188;8.602;2023-08-12T12:56:09;24.00;79.26
66740;DHT22;53653;52.188;8.602;2023-08-12T12:58:36;24.00;79.58
66740;DHT22;53653;52.188;8.602;2023-08-12T13:01:03;23.94;79.87
66740;DHT22;53653;52.188;8.602;2023-08-12T13:03:30;23.98;79.95
66740;DHT22;53653;52.188;8.602;2023-08-12T13:05:56;23.91;79.42
66740;DHT22;53653;52.188;8.602;2023-08-12T13:08:21;23.86;79.87
66740;DHT22;53653;52.188;8.602;2023-08-12T13:10:47;23.85;79.68
66740;DHT22;53653;52.188;8.602;2023-08-12T13:13:14;23.82;80.18
66740;DHT22;53653;52.188;8.602;2023-08-12T13:15:43;23.84;80.17
66740;DHT22;53653;52.188;8.602;2023-08-12T13:18:10;23.88;80.06
66740;DHT22;53653;52.188;8.602;2023-08-12T13:20:36;24.04;80.06
66740;DHT22;53653;52.188;8.602;2023-08-12T13:23:02;24.11;79.44
66740;DHT22;53653;52.188;8.602;2023-08-12T13:25:32;24.21;79.01
66740;DHT22;53653;52.188;8.602;2023-08-12T13:28:00;24.22;78.89
66740;DHT22;53653;52.188;8.602;2023-08-12T13:30:26;24.26;78.62
66740;DHT22;53653;52.188;8.602;2023-08-12T13:32:52;24.23;78.25
66740;DHT22;53653;52.188;8.602;2023-08-12T13:35:18;24.32;78.79
66740;DHT22;53653;52.188;8.602;2023-08-12T13:37:43;24.55;78.67
66740;DHT22;53653;52.188;8.602;2023-08-12T13:40:09;24.83;77.82
66740;DHT22;53653;52.188;8.602;2023-08-12T13:42:37;24.92;76.40
66740;DHT22;53653;52.188;8.602;2023-08-12T13:45:04;24.81;76.54
66740;DHT22;53653;52.188;8.602;2023-08-12T13:47:30;24.74;76.33
66740;DHT22;53653;52.188;8.602;2023-08-12T13:49:56;24.81;77.04
66740;DHT22;53653;52.188;8.602;2023-08-12T13:52:21;24.71;76.07
66740;DHT22;53653;52.188;8.602;2023-08-12T13:54:47;24.79;76.20
66740;DHT22;53653;52.188;8.602;2023-08-12T13:57:13;24.86;75.73
66740;DHT22;53653;52.188;8.602;2023-08-12T13:59:38;24.84;76.00
66740;DHT22;53653;52.188;8.602;2023-08-12T14:02:06;24.83;75.32
66740;DHT22;53653;52.188;8.602;2023-08-12T14:04:32;24.88;75.46
66740;DHT22;53653;52.188;8.602;2023-08-12T14:06:57;24.83;75.32
66740;DHT22;53653;52.188;8.602;2023-08-12T14:09:23;24.76;75.57
66740;DHT22;53653;52.188;8.602;2023-08-12T14:11:48;24.64;75.31
66740;DHT22;53653;52.188;8.602;2023-08-12T14:14:14;24.66;75.32
66740;DHT22;53653;52.188;8.602;2023-08-12T14:16:41;24.55;75.87
66740;DHT22;53653;52.188;8.602;2023-08-12T14:19:07;24.63;75.15
66740;DHT22;53653;52.188;8.602;2023-08-12T14:21:34;24.67;75.41
66740;DHT22;53653;52.188;8.602;2023-08-12T14:24:00;24.61;75.06
66740;DHT22;53653;52.188;8.602;2023-08-12T14:26:25;24.46;75.03
66740;DHT22;53653;52.188;8.602;2023-08-12T14:28:50;24.40;75.64
66740;DHT22;53653;52.188;8.602;2023-08-12T14:31:16;24.36;76.12
66740;DHT22;53653;52.188;8.602;2023-08-12T14:33:42;24.33;76.69
66740;DHT22;53653;52.188;8.602;2023-08-12T14:36:07;24.26;76.63
66740;DHT22;53653;52.188;8.602;2023-08-12T14:38:33;24.21;77.01
66740;DHT22;53653;52.188;8.602;2023-08-12T14:41:00;24.16;77.16
66740;DHT22;53653;52.188;8.602;2023-08-12T14:43:26;24.11;77.24
66740;DHT22;53653;52.188;8.602;2023-08-12T14:45:51;24.02;77.48
66740;DHT22;53653;52.188;8.602;2023-08-12T14:48:17;24.02;77.16
66740;DHT22;53653;52.188;8.602;2023-08-12T14:50:44;23.94;77.61
66740;DHT22;53653;52.188;8.602;2023-08-12T14:53:10;23.89;78.18
66740;DHT22;53653;52.188;8.602;2023-08-12T14:55:37;23.91;78.33
66740;DHT22;53653;52.188;8.602;2023-08-12T14:58:02;23.95;77.78
66740;DHT22;53653;52.188;8.602;2023-08-12T15:00:29;24.04;77.68
66740;DHT22;53653;52.188;8.602;2023-08-12T15:02:55;24.18;77.03
66740;DHT22;53653;52.188;8.602;2023-08-12T15:05:21;24.28;76.56
66740;DHT22;53653;52.188;8.602;2023-08-12T15:07:47;24.43;75.98
66740;DHT22;53653;52.188;8.602;2023-08-12T15:10:12;24.52;75.79
66740;DHT22;53653;52.188;8.602;2023-08-12T15:12:38;24.50;76.09
66740;DHT22;53653;52.188;8.602;2023-08-12T15:15:05;24.48;76.35
66740;DHT22;53653;52.188;8.602;2023-08-12T15:17:31;24.30;77.77
66740;DHT22;53653;52.188;8.602;2023-08-12T15:19:57;24.23;78.07
66740;DHT22;53653;52.188;8.602;2023-08-12T15:22:23;24.25;78.64
66740;DHT22;53653;52.188;8.602;2023-08-12T15:24:48;24.08;79.64
66740;DHT22;53653;52.188;8.602;2023-08-12T15:27:15;23.82;80.78
66740;DHT22;53653;52.188;8.602;2023-08-12T15:29:42;23.63;81.47
66740;DHT22;53653;52.188;8.602;2023-08-12T15:32:08;23.43;81.82
66740;DHT22;53653;52.188;8.602;2023-08-12T15:34:33;23.43;81.74
66740;DHT22;53653;52.188;8.602;2023-08-12T15:36:59;23.23;82.31
66740;DHT22;53653;52.188;8.602;2023-08-12T15:39:25;23.15;82.58